sensor_id;sensor_type;location;lat;lon;timestamp;P1;durP1;ratioP1;P2;durP2;ratioP2
25207;SDS011;13153;52.316;21.166;2022-07-29T00:00:46;9.23;;;4.30;;
25207;SDS011;13153;52.316;21.166;2022-07-29T00:03:12;16.10;;;6.05;;
25207;SDS011;13153;52.316;21.166;2022-07-29T00:05:39;10.43;;;5.05;;
25207;SDS011;13153;52.316;21.166;2022-07-29T00:08:06;8.02;;;4.75;;
25207;SDS011;13153;52.316;21.166;2022-07-29T00:10:34;11.18;;;4.45;;
25207;SDS011;13153;52.316;21.166;2022-07-29T00:13:00;12.90;;;5.07;;
25207;SDS011;13153;52.316;21.166;2022-07-29T00:15:27;11.82;;;4.63;;
25207;SDS011;13153;52.316;21.166;2022-07-29T00:17:53;10.30;;;4.72;;
25207;SDS011;13153;52.316;21.166;2022-07-29T00:20:19;13.15;;;5.25;;
25207;SDS011;13153;52.316;21.166;2022-07-29T00:22:45;7.60;;;4.45;;
25207;SDS011;13153;52.316;21.166;2022-07-29T00:25:11;10.25;;;4.70;;
25207;SDS011;13153;52.316;21.166;2022-07-29T00:27:38;17.58;;;7.80;;
25207;SDS011;13153;52.316;21.166;2022-07-29T00:30:04;14.80;;;7.57;;
25207;SDS011;13153;52.316;21.166;2022-07-29T00:32:31;12.70;;;5.88;;
25207;SDS011;13153;52.316;21.166;2022-07-29T00:34:57;9.45;;;4.80;;
25207;SDS011;13153;52.316;21.166;2022-07-29T00:37:41;8.00;;;4.35;;
25207;SDS011;13153;52.316;21.166;2022-07-29T00:40:07;8.40;;;4.60;;
25207;SDS011;13153;52.316;21.166;2022-07-29T00:42:43;8.23;;;4.13;;
25207;SDS011;13153;52.316;21.166;2022-07-29T00:45:11;8.88;;;4.05;;
25207;SDS011;13153;52.316;21.166;2022-07-29T00:47:39;9.65;;;4.80;;
25207;SDS011;13153;52.316;21.166;2022-07-29T00:50:05;7.10;;;3.92;;
25207;SDS011;13153;52.316;21.166;2022-07-29T00:52:34;8.23;;;4.10;;
25207;SDS011;13153;52.316;21.166;2022-07-29T00:55:03;6.30;;;3.65;;
25207;SDS011;13153;52.316;21.166;2022-07-29T00:57:32;8.68;;;3.95;;
25207;SDS011;13153;52.316;21.166;2022-07-29T00:59:59;7.50;;;4.00;;
25207;SDS011;13153;52.316;21.166;2022-07-29T01:02:25;10.65;;;4.55;;
25207;SDS011;13153;52.316;21.166;2022-07-29T01:04:51;10.25;;;4.05;;
25207;SDS011;13153;52.316;21.166;2022-07-29T01:07:18;8.43;;;3.83;;
25207;SDS011;13153;52.316;21.166;2022-07-29T01:09:44;9.38;;;4.22;;
25207;SDS011;13153;52.316;21.166;2022-07-29T01:12:13;8.02;;;3.90;;
25207;SDS011;13153;52.316;21.166;2022-07-29T01:14:44;8.95;;;4.53;;
25207;SDS011;13153;52.316;21.166;2022-07-29T01:17:14;8.43;;;4.20;;
25207;SDS011;13153;52.316;21.166;2022-07-29T01:23:11;10.48;;;3.95;;
25207;SDS011;13153;52.316;21.166;2022-07-29T01:26:10;7.03;;;4.07;;
25207;SDS011;13153;52.316;21.166;2022-07-29T01:29:18;6.20;;;4.05;;
25207;SDS011;13153;52.316;21.166;2022-07-29T01:32:10;8.90;;;4.20;;
25207;SDS011;13153;52.316;21.166;2022-07-29T01:37:55;8.60;;;4.10;;
25207;SDS011;13153;52.316;21.166;2022-07-29T01:40:34;7.45;;;3.40;;
25207;SDS011;13153;52.316;21.166;2022-07-29T01:43:18;12.18;;;3.60;;
25207;SDS011;13153;52.316;21.166;2022-07-29T01:46:01;8.00;;;3.83;;
25207;SDS011;13153;52.316;21.166;2022-07-29T01:48:39;6.80;;;4.13;;
25207;SDS011;13153;52.316;21.166;2022-07-29T01:51:14;8.70;;;4.10;;
25207;SDS011;13153;52.316;21.166;2022-07-29T01:54:08;9.20;;;3.80;;
25207;SDS011;13153;52.316;21.166;2022-07-29T01:56:51;8.75;;;3.70;;
25207;SDS011;13153;52.316;21.166;2022-07-29T01:59:21;7.00;;;3.85;;
25207;SDS011;13153;52.316;21.166;2022-07-29T02:01:50;6.78;;;3.60;;
25207;SDS011;13153;52.316;21.166;2022-07-29T02:04:20;7.40;;;3.58;;
25207;SDS011;13153;52.316;21.166;2022-07-29T02:06:49;8.55;;;3.50;;
25207;SDS011;13153;52.316;21.166;2022-07-29T02:09:19;10.75;;;3.60;;
25207;SDS011;13153;52.316;21.166;2022-07-29T02:11:49;6.45;;;3.42;;
25207;SDS011;13153;52.316;21.166;2022-07-29T02:14:20;6.32;;;3.67;;
25207;SDS011;13153;52.316;21.166;2022-07-29T02:16:48;8.07;;;3.40;;
25207;SDS011;13153;52.316;21.166;2022-07-29T02:19:19;6.93;;;3.30;;
25207;SDS011;13153;52.316;21.166;2022-07-29T02:21:51;8.50;;;3.83;;
25207;SDS011;13153;52.316;21.166;2022-07-29T02:24:22;9.32;;;3.38;;
25207;SDS011;13153;52.316;21.166;2022-07-29T02:26:50;6.63;;;3.35;;
25207;SDS011;13153;52.316;21.166;2022-07-29T02:29:21;6.50;;;3.80;;
25207;SDS011;13153;52.316;21.166;2022-07-29T02:31:51;6.70;;;3.50;;
25207;SDS011;13153;52.316;21.166;2022-07-29T02:34:20;7.70;;;3.58;;
25207;SDS011;13153;52.316;21.166;2022-07-29T02:36:46;7.50;;;3.60;;
25207;SDS011;13153;52.316;21.166;2022-07-29T02:39:14;7.25;;;3.60;;
25207;SDS011;13153;52.316;21.166;2022-07-29T02:41:50;6.70;;;3.70;;
25207;SDS011;13153;52.316;21.166;2022-07-29T02:44:24;6.95;;;3.72;;
25207;SDS011;13153;52.316;21.166;2022-07-29T02:52:41;6.07;;;3.60;;
25207;SDS011;13153;52.316;21.166;2022-07-29T02:55:31;14.73;;;4.03;;
25207;SDS011;13153;52.316;21.166;2022-07-29T02:58:27;6.35;;;3.72;;
25207;SDS011;13153;52.316;21.166;2022-07-29T03:01:04;5.90;;;3.58;;
25207;SDS011;13153;52.316;21.166;2022-07-29T03:03:44;8.60;;;3.70;;
25207;SDS011;13153;52.316;21.166;2022-07-29T03:06:13;8.15;;;3.35;;
25207;SDS011;13153;52.316;21.166;2022-07-29T03:08:42;8.70;;;3.65;;
25207;SDS011;13153;52.316;21.166;2022-07-29T03:11:09;4.97;;;3.63;;
25207;SDS011;13153;52.316;21.166;2022-07-29T03:13:37;7.15;;;3.42;;
25207;SDS011;13153;52.316;21.166;2022-07-29T03:16:04;6.45;;;4.00;;
25207;SDS011;13153;52.316;21.166;2022-07-29T03:18:31;6.38;;;3.72;;
25207;SDS011;13153;52.316;21.166;2022-07-29T03:20:57;4.68;;;3.30;;
25207;SDS011;13153;52.316;21.166;2022-07-29T03:23:24;8.85;;;3.60;;
25207;SDS011;13153;52.316;21.166;2022-07-29T03:25:52;6.03;;;3.25;;
25207;SDS011;13153;52.316;21.166;2022-07-29T03:28:19;5.07;;;3.03;;
25207;SDS011;13153;52.316;21.166;2022-07-29T03:30:46;8.75;;;3.38;;
25207;SDS011;13153;52.316;21.166;2022-07-29T03:33:12;5.93;;;3.33;;
25207;SDS011;13153;52.316;21.166;2022-07-29T03:35:38;11.98;;;4.50;;
25207;SDS011;13153;52.316;21.166;2022-07-29T03:38:04;8.30;;;3.45;;
25207;SDS011;13153;52.316;21.166;2022-07-29T03:40:38;4.75;;;2.92;;
25207;SDS011;13153;52.316;21.166;2022-07-29T03:43:15;6.65;;;3.10;;
25207;SDS011;13153;52.316;21.166;2022-07-29T03:45:44;6.43;;;3.38;;
25207;SDS011;13153;52.316;21.166;2022-07-29T03:48:17;7.82;;;2.92;;
25207;SDS011;13153;52.316;21.166;2022-07-29T03:50:46;5.45;;;3.33;;
25207;SDS011;13153;52.316;21.166;2022-07-29T03:53:13;6.18;;;3.13;;
25207;SDS011;13153;52.316;21.166;2022-07-29T03:55:41;5.18;;;2.83;;
25207;SDS011;13153;52.316;21.166;2022-07-29T03:58:12;5.10;;;3.10;;
25207;SDS011;13153;52.316;21.166;2022-07-29T04:00:40;4.85;;;2.90;;
25207;SDS011;13153;52.316;21.166;2022-07-29T04:03:08;5.90;;;2.90;;
25207;SDS011;13153;52.316;21.166;2022-07-29T04:05:35;4.78;;;2.70;;
25207;SDS011;13153;52.316;21.166;2022-07-29T04:08:01;4.55;;;2.60;;
25207;SDS011;13153;52.316;21.166;2022-07-29T04:10:26;4.70;;;2.70;;
25207;SDS011;13153;52.316;21.166;2022-07-29T04:12:52;5.07;;;3.05;;
25207;SDS011;13153;52.316;21.166;2022-07-29T04:15:18;6.55;;;3.00;;
25207;SDS011;13153;52.316;21.166;2022-07-29T04:17:44;6.35;;;3.40;;
25207;SDS011;13153;52.316;21.166;2022-07-29T04:20:10;6.20;;;2.50;;
25207;SDS011;13153;52.316;21.166;2022-07-29T04:22:39;7.07;;;2.42;;
25207;SDS011;13153;52.316;21.166;2022-07-29T04:25:06;4.50;;;2.13;;
25207;SDS011;13153;52.316;21.166;2022-07-29T04:27:32;5.85;;;2.30;;
25207;SDS011;13153;52.316;21.166;2022-07-29T04:29:58;6.05;;;2.40;;
25207;SDS011;13153;52.316;21.166;2022-07-29T04:32:24;7.15;;;2.15;;
25207;SDS011;13153;52.316;21.166;2022-07-29T04:34:51;7.95;;;2.35;;
25207;SDS011;13153;52.316;21.166;2022-07-29T04:37:17;4.20;;;1.98;;
25207;SDS011;13153;52.316;21.166;2022-07-29T04:39:43;2.78;;;1.80;;
25207;SDS011;13153;52.316;21.166;2022-07-29T04:42:09;2.58;;;1.92;;
25207;SDS011;13153;52.316;21.166;2022-07-29T04:44:34;6.65;;;2.00;;
25207;SDS011;13153;52.316;21.166;2022-07-29T04:47:00;2.65;;;1.80;;
25207;SDS011;13153;52.316;21.166;2022-07-29T04:49:26;2.83;;;1.52;;
25207;SDS011;13153;52.316;21.166;2022-07-29T04:51:52;3.47;;;2.00;;
25207;SDS011;13153;52.316;21.166;2022-07-29T04:54:18;3.47;;;1.98;;
25207;SDS011;13153;52.316;21.166;2022-07-29T04:56:43;3.35;;;1.70;;
25207;SDS011;13153;52.316;21.166;2022-07-29T04:59:11;3.03;;;1.80;;
25207;SDS011;13153;52.316;21.166;2022-07-29T05:01:36;3.70;;;2.05;;
25207;SDS011;13153;52.316;21.166;2022-07-29T05:04:02;4.93;;;2.20;;
25207;SDS011;13153;52.316;21.166;2022-07-29T05:06:28;3.97;;;1.80;;
25207;SDS011;13153;52.316;21.166;2022-07-29T05:08:54;3.15;;;1.80;;
25207;SDS011;13153;52.316;21.166;2022-07-29T05:11:19;2.08;;;1.40;;
25207;SDS011;13153;52.316;21.166;2022-07-29T05:13:45;6.95;;;2.10;;
25207;SDS011;13153;52.316;21.166;2022-07-29T05:16:11;2.25;;;1.40;;
25207;SDS011;13153;52.316;21.166;2022-07-29T05:18:37;3.38;;;1.45;;
25207;SDS011;13153;52.316;21.166;2022-07-29T05:21:04;2.78;;;1.67;;
25207;SDS011;13153;52.316;21.166;2022-07-29T05:23:29;5.55;;;1.60;;
25207;SDS011;13153;52.316;21.166;2022-07-29T05:25:55;4.95;;;1.50;;
25207;SDS011;13153;52.316;21.166;2022-07-29T05:28:21;3.15;;;1.20;;
25207;SDS011;13153;52.316;21.166;2022-07-29T05:30:47;4.35;;;1.30;;
25207;SDS011;13153;52.316;21.166;2022-07-29T05:33:13;2.53;;;1.20;;
25207;SDS011;13153;52.316;21.166;2022-07-29T05:35:38;4.20;;;1.23;;
25207;SDS011;13153;52.316;21.166;2022-07-29T05:38:04;1.75;;;1.20;;
25207;SDS011;13153;52.316;21.166;2022-07-29T05:40:30;1.65;;;1.23;;
25207;SDS011;13153;52.316;21.166;2022-07-29T05:42:55;2.53;;;1.30;;
25207;SDS011;13153;52.316;21.166;2022-07-29T05:45:21;2.20;;;1.10;;
25207;SDS011;13153;52.316;21.166;2022-07-29T05:47:50;2.75;;;1.10;;
25207;SDS011;13153;52.316;21.166;2022-07-29T05:50:16;1.48;;;1.13;;
25207;SDS011;13153;52.316;21.166;2022-07-29T05:52:42;3.35;;;1.10;;
25207;SDS011;13153;52.316;21.166;2022-07-29T05:55:07;2.05;;;1.00;;
25207;SDS011;13153;52.316;21.166;2022-07-29T05:57:33;2.90;;;1.90;;
25207;SDS011;13153;52.316;21.166;2022-07-29T05:59:59;3.88;;;1.05;;
25207;SDS011;13153;52.316;21.166;2022-07-29T06:02:25;2.28;;;1.08;;
25207;SDS011;13153;52.316;21.166;2022-07-29T06:04:51;5.25;;;1.30;;
25207;SDS011;13153;52.316;21.166;2022-07-29T06:07:16;3.75;;;0.90;;
25207;SDS011;13153;52.316;21.166;2022-07-29T06:09:42;3.35;;;1.20;;
25207;SDS011;13153;52.316;21.166;2022-07-29T06:12:08;3.67;;;1.08;;
25207;SDS011;13153;52.316;21.166;2022-07-29T06:14:34;2.83;;;0.90;;
25207;SDS011;13153;52.316;21.166;2022-07-29T06:17:00;2.35;;;1.13;;
25207;SDS011;13153;52.316;21.166;2022-07-29T06:19:26;2.92;;;1.10;;
25207;SDS011;13153;52.316;21.166;2022-07-29T06:21:52;5.18;;;1.40;;
25207;SDS011;13153;52.316;21.166;2022-07-29T06:24:18;4.43;;;1.30;;
25207;SDS011;13153;52.316;21.166;2022-07-29T06:26:44;2.80;;;1.00;;
25207;SDS011;13153;52.316;21.166;2022-07-29T06:29:10;3.47;;;1.05;;
25207;SDS011;13153;52.316;21.166;2022-07-29T06:31:36;2.17;;;1.20;;
25207;SDS011;13153;52.316;21.166;2022-07-29T06:34:02;3.35;;;0.98;;
25207;SDS011;13153;52.316;21.166;2022-07-29T06:36:29;1.20;;;1.10;;
25207;SDS011;13153;52.316;21.166;2022-07-29T06:38:55;3.00;;;1.15;;
25207;SDS011;13153;52.316;21.166;2022-07-29T06:41:21;3.72;;;1.10;;
25207;SDS011;13153;52.316;21.166;2022-07-29T06:43:47;1.13;;;0.90;;
25207;SDS011;13153;52.316;21.166;2022-07-29T06:46:16;2.08;;;1.08;;
25207;SDS011;13153;52.316;21.166;2022-07-29T06:48:44;1.33;;;0.82;;
25207;SDS011;13153;52.316;21.166;2022-07-29T06:51:10;4.93;;;1.00;;
25207;SDS011;13153;52.316;21.166;2022-07-29T06:53:37;2.10;;;0.90;;
25207;SDS011;13153;52.316;21.166;2022-07-29T06:56:04;3.05;;;1.25;;
25207;SDS011;13153;52.316;21.166;2022-07-29T06:58:33;1.80;;;0.90;;
25207;SDS011;13153;52.316;21.166;2022-07-29T07:01:01;2.67;;;0.93;;
25207;SDS011;13153;52.316;21.166;2022-07-29T07:03:30;2.63;;;1.15;;
25207;SDS011;13153;52.316;21.166;2022-07-29T07:05:55;1.92;;;1.30;;
25207;SDS011;13153;52.316;21.166;2022-07-29T07:08:22;2.58;;;1.30;;
25207;SDS011;13153;52.316;21.166;2022-07-29T07:10:48;1.63;;;0.80;;
25207;SDS011;13153;52.316;21.166;2022-07-29T07:13:18;1.23;;;0.80;;
25207;SDS011;13153;52.316;21.166;2022-07-29T07:15:44;2.92;;;1.00;;
25207;SDS011;13153;52.316;21.166;2022-07-29T07:18:13;3.13;;;1.00;;
25207;SDS011;13153;52.316;21.166;2022-07-29T07:20:40;2.17;;;0.90;;
25207;SDS011;13153;52.316;21.166;2022-07-29T07:23:07;0.80;;;0.70;;
25207;SDS011;13153;52.316;21.166;2022-07-29T07:25:32;3.67;;;1.00;;
25207;SDS011;13153;52.316;21.166;2022-07-29T07:27:58;2.78;;;1.13;;
25207;SDS011;13153;52.316;21.166;2022-07-29T07:30:24;6.13;;;0.85;;
25207;SDS011;13153;52.316;21.166;2022-07-29T07:32:50;0.88;;;0.70;;
25207;SDS011;13153;52.316;21.166;2022-07-29T07:35:16;3.30;;;0.80;;
25207;SDS011;13153;52.316;21.166;2022-07-29T07:37:42;4.18;;;0.80;;
25207;SDS011;13153;52.316;21.166;2022-07-29T07:40:08;1.00;;;0.90;;
25207;SDS011;13153;52.316;21.166;2022-07-29T07:42:39;2.38;;;0.77;;
25207;SDS011;13153;52.316;21.166;2022-07-29T07:45:06;1.85;;;0.80;;
25207;SDS011;13153;52.316;21.166;2022-07-29T07:47:34;1.38;;;0.93;;
25207;SDS011;13153;52.316;21.166;2022-07-29T07:50:05;3.13;;;1.00;;
25207;SDS011;13153;52.316;21.166;2022-07-29T07:52:33;2.88;;;1.05;;
25207;SDS011;13153;52.316;21.166;2022-07-29T07:54:59;1.27;;;0.90;;
25207;SDS011;13153;52.316;21.166;2022-07-29T07:57:25;1.23;;;0.85;;
25207;SDS011;13153;52.316;21.166;2022-07-29T07:59:50;3.30;;;1.02;;
25207;SDS011;13153;52.316;21.166;2022-07-29T08:02:16;4.63;;;1.10;;
25207;SDS011;13153;52.316;21.166;2022-07-29T08:04:42;3.40;;;1.23;;
25207;SDS011;13153;52.316;21.166;2022-07-29T08:07:07;2.60;;;1.52;;
25207;SDS011;13153;52.316;21.166;2022-07-29T08:09:34;2.28;;;0.95;;
25207;SDS011;13153;52.316;21.166;2022-07-29T08:12:00;2.75;;;1.33;;
25207;SDS011;13153;52.316;21.166;2022-07-29T08:14:29;3.17;;;1.17;;
25207;SDS011;13153;52.316;21.166;2022-07-29T08:16:55;7.43;;;1.52;;
25207;SDS011;13153;52.316;21.166;2022-07-29T08:19:21;4.00;;;1.70;;
25207;SDS011;13153;52.316;21.166;2022-07-29T08:21:47;3.20;;;1.70;;
25207;SDS011;13153;52.316;21.166;2022-07-29T08:24:12;1.73;;;1.30;;
25207;SDS011;13153;52.316;21.166;2022-07-29T08:26:56;5.13;;;1.30;;
25207;SDS011;13153;52.316;21.166;2022-07-29T08:29:22;3.28;;;1.42;;
25207;SDS011;13153;52.316;21.166;2022-07-29T08:31:48;3.72;;;1.30;;
25207;SDS011;13153;52.316;21.166;2022-07-29T08:34:13;2.22;;;0.95;;
25207;SDS011;13153;52.316;21.166;2022-07-29T08:36:39;2.50;;;1.25;;
25207;SDS011;13153;52.316;21.166;2022-07-29T08:39:05;5.40;;;1.50;;
25207;SDS011;13153;52.316;21.166;2022-07-29T08:41:31;2.78;;;1.25;;
25207;SDS011;13153;52.316;21.166;2022-07-29T08:43:56;5.18;;;1.30;;
25207;SDS011;13153;52.316;21.166;2022-07-29T08:46:22;4.78;;;1.15;;
25207;SDS011;13153;52.316;21.166;2022-07-29T08:48:48;4.93;;;1.00;;
25207;SDS011;13153;52.316;21.166;2022-07-29T08:51:15;1.85;;;1.00;;
25207;SDS011;13153;52.316;21.166;2022-07-29T08:53:44;2.70;;;1.10;;
25207;SDS011;13153;52.316;21.166;2022-07-29T08:56:13;4.50;;;1.10;;
25207;SDS011;13153;52.316;21.166;2022-07-29T08:58:44;5.50;;;1.70;;
25207;SDS011;13153;52.316;21.166;2022-07-29T09:01:12;5.40;;;1.65;;
25207;SDS011;13153;52.316;21.166;2022-07-29T09:03:43;3.38;;;0.80;;
25207;SDS011;13153;52.316;21.166;2022-07-29T09:06:14;3.45;;;1.10;;
25207;SDS011;13153;52.316;21.166;2022-07-29T09:08:43;6.95;;;1.08;;
25207;SDS011;13153;52.316;21.166;2022-07-29T09:11:10;5.18;;;0.93;;
25207;SDS011;13153;52.316;21.166;2022-07-29T09:13:37;5.15;;;1.10;;
25207;SDS011;13153;52.316;21.166;2022-07-29T09:16:04;4.05;;;1.35;;
25207;SDS011;13153;52.316;21.166;2022-07-29T09:18:40;2.25;;;1.13;;
25207;SDS011;13153;52.316;21.166;2022-07-29T09:21:09;2.63;;;0.95;;
25207;SDS011;13153;52.316;21.166;2022-07-29T09:24:04;2.75;;;1.10;;
25207;SDS011;13153;52.316;21.166;2022-07-29T09:26:43;3.13;;;1.40;;
25207;SDS011;13153;52.316;21.166;2022-07-29T09:31:48;2.88;;;1.15;;
25207;SDS011;13153;52.316;21.166;2022-07-29T09:34:20;3.10;;;1.40;;
25207;SDS011;13153;52.316;21.166;2022-07-29T09:36:49;3.13;;;1.33;;
25207;SDS011;13153;52.316;21.166;2022-07-29T09:39:28;1.77;;;0.88;;
25207;SDS011;13153;52.316;21.166;2022-07-29T09:41:59;5.43;;;1.10;;
25207;SDS011;13153;52.316;21.166;2022-07-29T09:44:42;4.57;;;0.98;;
25207;SDS011;13153;52.316;21.166;2022-07-29T09:47:13;2.40;;;0.77;;
25207;SDS011;13153;52.316;21.166;2022-07-29T09:49:51;6.70;;;1.00;;
25207;SDS011;13153;52.316;21.166;2022-07-29T09:52:23;1.63;;;0.88;;
25207;SDS011;13153;52.316;21.166;2022-07-29T09:54:50;2.70;;;1.30;;
25207;SDS011;13153;52.316;21.166;2022-07-29T09:57:25;2.97;;;0.93;;
25207;SDS011;13153;52.316;21.166;2022-07-29T10:00:09;3.20;;;1.45;;
25207;SDS011;13153;52.316;21.166;2022-07-29T10:02:40;2.08;;;0.98;;
25207;SDS011;13153;52.316;21.166;2022-07-29T10:07:54;1.88;;;1.23;;
25207;SDS011;13153;52.316;21.166;2022-07-29T10:10:29;1.33;;;1.00;;
25207;SDS011;13153;52.316;21.166;2022-07-29T10:15:29;2.70;;;0.80;;
25207;SDS011;13153;52.316;21.166;2022-07-29T10:17:58;2.83;;;1.15;;
25207;SDS011;13153;52.316;21.166;2022-07-29T10:20:25;1.55;;;1.08;;
25207;SDS011;13153;52.316;21.166;2022-07-29T10:22:52;2.85;;;1.08;;
25207;SDS011;13153;52.316;21.166;2022-07-29T10:25:20;1.95;;;0.90;;
25207;SDS011;13153;52.316;21.166;2022-07-29T10:27:48;1.55;;;0.90;;
25207;SDS011;13153;52.316;21.166;2022-07-29T10:30:18;1.50;;;0.93;;
25207;SDS011;13153;52.316;21.166;2022-07-29T10:36:04;0.98;;;0.85;;
25207;SDS011;13153;52.316;21.166;2022-07-29T10:44:40;4.15;;;1.27;;
25207;SDS011;13153;52.316;21.166;2022-07-29T10:47:08;2.28;;;1.08;;
25207;SDS011;13153;52.316;21.166;2022-07-29T10:58:16;1.30;;;1.10;;
25207;SDS011;13153;52.316;21.166;2022-07-29T11:00:45;2.05;;;1.02;;
25207;SDS011;13153;52.316;21.166;2022-07-29T11:06:12;3.67;;;1.08;;
25207;SDS011;13153;52.316;21.166;2022-07-29T11:08:39;2.60;;;0.98;;
25207;SDS011;13153;52.316;21.166;2022-07-29T11:14:01;2.13;;;1.00;;
25207;SDS011;13153;52.316;21.166;2022-07-29T11:16:31;2.67;;;1.15;;
25207;SDS011;13153;52.316;21.166;2022-07-29T11:19:28;2.28;;;1.10;;
25207;SDS011;13153;52.316;21.166;2022-07-29T11:21:53;1.45;;;1.00;;
25207;SDS011;13153;52.316;21.166;2022-07-29T11:24:20;2.50;;;1.10;;
25207;SDS011;13153;52.316;21.166;2022-07-29T11:29:55;4.22;;;1.20;;
25207;SDS011;13153;52.316;21.166;2022-07-29T11:32:28;3.72;;;1.13;;
25207;SDS011;13153;52.316;21.166;2022-07-29T11:35:14;1.40;;;0.80;;
25207;SDS011;13153;52.316;21.166;2022-07-29T11:37:47;1.42;;;0.98;;
25207;SDS011;13153;52.316;21.166;2022-07-29T11:43:50;3.60;;;1.08;;
25207;SDS011;13153;52.316;21.166;2022-07-29T11:49:14;2.55;;;1.10;;
25207;SDS011;13153;52.316;21.166;2022-07-29T11:51:49;3.03;;;1.05;;
25207;SDS011;13153;52.316;21.166;2022-07-29T11:54:24;4.75;;;1.00;;
25207;SDS011;13153;52.316;21.166;2022-07-29T11:56:58;2.55;;;1.13;;
25207;SDS011;13153;52.316;21.166;2022-07-29T11:59:24;2.92;;;0.93;;
25207;SDS011;13153;52.316;21.166;2022-07-29T12:01:52;3.40;;;0.80;;
25207;SDS011;13153;52.316;21.166;2022-07-29T12:04:19;3.40;;;1.30;;
25207;SDS011;13153;52.316;21.166;2022-07-29T12:06:49;2.17;;;1.05;;
25207;SDS011;13153;52.316;21.166;2022-07-29T12:09:16;2.15;;;1.15;;
25207;SDS011;13153;52.316;21.166;2022-07-29T12:11:43;4.53;;;1.42;;
25207;SDS011;13153;52.316;21.166;2022-07-29T12:14:24;1.05;;;0.95;;
25207;SDS011;13153;52.316;21.166;2022-07-29T12:16:57;2.53;;;1.10;;
25207;SDS011;13153;52.316;21.166;2022-07-29T12:19:25;2.60;;;1.13;;
25207;SDS011;13153;52.316;21.166;2022-07-29T12:21:53;3.60;;;1.77;;
25207;SDS011;13153;52.316;21.166;2022-07-29T12:24:23;1.40;;;0.88;;
25207;SDS011;13153;52.316;21.166;2022-07-29T12:26:52;2.10;;;1.00;;
25207;SDS011;13153;52.316;21.166;2022-07-29T12:29:22;1.42;;;0.82;;
25207;SDS011;13153;52.316;21.166;2022-07-29T12:31:52;2.92;;;1.00;;
25207;SDS011;13153;52.316;21.166;2022-07-29T12:34:20;1.23;;;0.93;;
25207;SDS011;13153;52.316;21.166;2022-07-29T12:36:53;1.27;;;0.80;;
25207;SDS011;13153;52.316;21.166;2022-07-29T12:39:20;1.33;;;0.90;;
25207;SDS011;13153;52.316;21.166;2022-07-29T12:41:46;1.92;;;1.00;;
25207;SDS011;13153;52.316;21.166;2022-07-29T12:44:12;2.22;;;1.50;;
25207;SDS011;13153;52.316;21.166;2022-07-29T12:46:37;4.70;;;1.98;;
25207;SDS011;13153;52.316;21.166;2022-07-29T12:49:03;2.13;;;1.20;;
25207;SDS011;13153;52.316;21.166;2022-07-29T12:51:33;4.75;;;2.30;;
25207;SDS011;13153;52.316;21.166;2022-07-29T12:54:07;4.47;;;1.70;;
25207;SDS011;13153;52.316;21.166;2022-07-29T12:56:38;1.65;;;1.08;;
25207;SDS011;13153;52.316;21.166;2022-07-29T12:59:19;3.05;;;1.10;;
25207;SDS011;13153;52.316;21.166;2022-07-29T13:01:47;2.03;;;1.15;;
25207;SDS011;13153;52.316;21.166;2022-07-29T13:04:29;1.73;;;1.10;;
25207;SDS011;13153;52.316;21.166;2022-07-29T13:09:36;3.67;;;1.38;;
25207;SDS011;13153;52.316;21.166;2022-07-29T13:12:13;2.28;;;1.45;;
25207;SDS011;13153;52.316;21.166;2022-07-29T13:17:09;2.08;;;1.00;;
25207;SDS011;13153;52.316;21.166;2022-07-29T13:22:18;2.47;;;1.15;;
25207;SDS011;13153;52.316;21.166;2022-07-29T13:24:48;3.30;;;0.95;;
25207;SDS011;13153;52.316;21.166;2022-07-29T13:27:26;2.58;;;1.73;;
25207;SDS011;13153;52.316;21.166;2022-07-29T13:29:56;1.83;;;1.10;;
25207;SDS011;13153;52.316;21.166;2022-07-29T13:32:24;2.35;;;1.10;;
25207;SDS011;13153;52.316;21.166;2022-07-29T13:34:51;1.42;;;0.90;;
25207;SDS011;13153;52.316;21.166;2022-07-29T13:37:17;1.95;;;0.93;;
25207;SDS011;13153;52.316;21.166;2022-07-29T13:39:43;2.80;;;1.00;;
25207;SDS011;13153;52.316;21.166;2022-07-29T13:42:09;1.50;;;0.85;;
25207;SDS011;13153;52.316;21.166;2022-07-29T13:44:38;1.95;;;1.02;;
25207;SDS011;13153;52.316;21.166;2022-07-29T13:47:05;2.50;;;1.10;;
25207;SDS011;13153;52.316;21.166;2022-07-29T13:49:32;1.02;;;0.88;;
25207;SDS011;13153;52.316;21.166;2022-07-29T13:51:58;2.45;;;1.10;;
25207;SDS011;13153;52.316;21.166;2022-07-29T13:54:24;1.65;;;1.10;;
25207;SDS011;13153;52.316;21.166;2022-07-29T13:56:50;3.85;;;1.70;;
25207;SDS011;13153;52.316;21.166;2022-07-29T13:59:17;2.30;;;1.40;;
25207;SDS011;13153;52.316;21.166;2022-07-29T14:01:43;2.88;;;1.30;;
25207;SDS011;13153;52.316;21.166;2022-07-29T14:04:09;4.68;;;1.48;;
25207;SDS011;13153;52.316;21.166;2022-07-29T14:06:35;1.20;;;1.10;;
25207;SDS011;13153;52.316;21.166;2022-07-29T14:09:02;3.97;;;1.38;;
25207;SDS011;13153;52.316;21.166;2022-07-29T14:11:33;1.10;;;0.93;;
25207;SDS011;13153;52.316;21.166;2022-07-29T14:14:00;1.67;;;0.82;;
25207;SDS011;13153;52.316;21.166;2022-07-29T14:16:26;4.13;;;1.80;;
25207;SDS011;13153;52.316;21.166;2022-07-29T14:18:52;2.30;;;1.05;;
25207;SDS011;13153;52.316;21.166;2022-07-29T14:21:18;2.05;;;1.35;;
25207;SDS011;13153;52.316;21.166;2022-07-29T14:23:43;1.63;;;0.90;;
25207;SDS011;13153;52.316;21.166;2022-07-29T14:26:09;2.00;;;1.15;;
25207;SDS011;13153;52.316;21.166;2022-07-29T14:28:35;3.90;;;1.10;;
25207;SDS011;13153;52.316;21.166;2022-07-29T14:31:00;1.70;;;1.27;;
25207;SDS011;13153;52.316;21.166;2022-07-29T14:33:26;4.35;;;1.70;;
25207;SDS011;13153;52.316;21.166;2022-07-29T14:35:52;1.40;;;1.10;;
25207;SDS011;13153;52.316;21.166;2022-07-29T14:38:17;3.50;;;0.95;;
25207;SDS011;13153;52.316;21.166;2022-07-29T14:40:43;2.58;;;1.65;;
25207;SDS011;13153;52.316;21.166;2022-07-29T14:43:11;3.25;;;1.00;;
25207;SDS011;13153;52.316;21.166;2022-07-29T14:45:38;1.35;;;0.98;;
25207;SDS011;13153;52.316;21.166;2022-07-29T14:48:05;2.10;;;1.20;;
25207;SDS011;13153;52.316;21.166;2022-07-29T14:50:31;1.13;;;0.90;;
25207;SDS011;13153;52.316;21.166;2022-07-29T14:52:57;3.95;;;1.20;;
25207;SDS011;13153;52.316;21.166;2022-07-29T14:55:23;1.17;;;1.00;;
25207;SDS011;13153;52.316;21.166;2022-07-29T14:57:48;2.70;;;1.45;;
25207;SDS011;13153;52.316;21.166;2022-07-29T15:00:15;3.95;;;1.50;;
25207;SDS011;13153;52.316;21.166;2022-07-29T15:02:41;4.35;;;1.00;;
25207;SDS011;13153;52.316;21.166;2022-07-29T15:05:07;1.85;;;1.20;;
25207;SDS011;13153;52.316;21.166;2022-07-29T15:07:33;2.25;;;1.00;;
25207;SDS011;13153;52.316;21.166;2022-07-29T15:09:59;1.85;;;1.00;;
25207;SDS011;13153;52.316;21.166;2022-07-29T15:12:25;0.98;;;0.80;;
25207;SDS011;13153;52.316;21.166;2022-07-29T15:14:50;3.65;;;1.40;;
25207;SDS011;13153;52.316;21.166;2022-07-29T15:17:16;2.08;;;1.15;;
25207;SDS011;13153;52.316;21.166;2022-07-29T15:19:42;3.83;;;1.25;;
25207;SDS011;13153;52.316;21.166;2022-07-29T15:22:07;2.28;;;1.98;;
25207;SDS011;13153;52.316;21.166;2022-07-29T15:24:33;2.17;;;1.05;;
25207;SDS011;13153;52.316;21.166;2022-07-29T15:26:59;2.55;;;0.95;;
25207;SDS011;13153;52.316;21.166;2022-07-29T15:29:25;2.13;;;0.93;;
25207;SDS011;13153;52.316;21.166;2022-07-29T15:31:50;4.80;;;1.40;;
25207;SDS011;13153;52.316;21.166;2022-07-29T15:34:16;2.60;;;1.30;;
25207;SDS011;13153;52.316;21.166;2022-07-29T15:36:42;2.70;;;1.10;;
25207;SDS011;13153;52.316;21.166;2022-07-29T15:39:07;1.63;;;1.20;;
25207;SDS011;13153;52.316;21.166;2022-07-29T15:41:34;1.83;;;1.20;;
25207;SDS011;13153;52.316;21.166;2022-07-29T15:44:00;2.08;;;1.05;;